sensor_id;sensor_type;location;lat;lon;timestamp;temperature;humidity
32865;DHT22;19219;44.500;11.188;2023-11-18T00:01:24;7.10;99.90
32865;DHT22;19219;44.500;11.188;2023-11-18T00:03:50;7.00;99.90
32865;DHT22;19219;44.500;11.188;2023-11-18T00:06:16;7.00;99.90
32865;DHT22;19219;44.500;11.188;2023-11-18T00:08:42;6.90;99.90
32865;DHT22;19219;44.500;11.188;2023-11-18T00:11:08;6.90;99.90
32865;DHT22;19219;44.500;11.188;2023-11-18T00:13:36;6.80;99.90
32865;DHT22;19219;44.500;11.188;2023-11-18T00:16:08;6.90;99.90
32865;DHT22;19219;44.500;11.188;2023-11-18T00:18:38;6.90;99.90
32865;DHT22;19219;44.500;11.188;2023-11-18T00:21:05;6.80;99.90
32865;DHT22;19219;44.500;11.188;2023-11-18T00:23:31;6.80;99.90
32865;DHT22;19219;44.500;11.188;2023-11-18T00:25:56;6.90;99.90
32865;DHT22;19219;44.500;11.188;2023-11-18T00:28:23;6.90;99.90
32865;DHT22;19219;44.500;11.188;2023-11-18T00:30:48;6.90;99.90
32865;DHT22;19219;44.500;11.188;2023-11-18T00:33:14;6.90;99.90
32865;DHT22;19219;44.500;11.188;2023-11-18T00:35:40;6.90;99.90
32865;DHT22;19219;44.500;11.188;2023-11-18T00:38:06;6.80;99.90
32865;DHT22;19219;44.500;11.188;2023-11-18T00:40:32;6.60;99.90
32865;DHT22;19219;44.500;11.188;2023-11-18T00:42:57;6.50;99.90
32865;DHT22;19219;44.500;11.188;2023-11-18T00:45:23;6.40;99.90
32865;DHT22;19219;44.500;11.188;2023-11-18T00:47:49;6.30;99.90
32865;DHT22;19219;44.500;11.188;2023-11-18T00:50:15;6.40;99.90
32865;DHT22;19219;44.500;11.188;2023-11-18T00:52:41;6.40;99.90
32865;DHT22;19219;44.500;11.188;2023-11-18T00:55:08;6.40;99.90
32865;DHT22;19219;44.500;11.188;2023-11-18T00:57:35;6.50;99.90
32865;DHT22;19219;44.500;11.188;2023-11-18T01:00:00;6.60;99.90
32865;DHT22;19219;44.500;11.188;2023-11-18T01:02:26;6.60;99.90
32865;DHT22;19219;44.500;11.188;2023-11-18T01:04:53;6.40;99.90
32865;DHT22;19219;44.500;11.188;2023-11-18T01:07:19;6.30;99.90
32865;DHT22;19219;44.500;11.188;2023-11-18T01:09:45;6.20;99.90
32865;DHT22;19219;44.500;11.188;2023-11-18T01:12:11;6.20;99.90
32865;DHT22;19219;44.500;11.188;2023-11-18T01:14:40;6.30;99.90
32865;DHT22;19219;44.500;11.188;2023-11-18T01:17:07;6.30;99.90
32865;DHT22;19219;44.500;11.188;2023-11-18T01:19:35;6.20;99.90
32865;DHT22;19219;44.500;11.188;2023-11-18T01:22:01;6.20;99.90
32865;DHT22;19219;44.500;11.188;2023-11-18T01:24:31;6.10;99.90
32865;DHT22;19219;44.500;11.188;2023-11-18T01:26:56;6.10;99.90
32865;DHT22;19219;44.500;11.188;2023-11-18T01:29:22;6.10;99.90
32865;DHT22;19219;44.500;11.188;2023-11-18T01:31:48;6.00;99.90
32865;DHT22;19219;44.500;11.188;2023-11-18T01:34:14;5.90;99.90
32865;DHT22;19219;44.500;11.188;2023-11-18T01:36:39;5.90;99.90
32865;DHT22;19219;44.500;11.188;2023-11-18T01:39:05;5.70;99.90
32865;DHT22;19219;44.500;11.188;2023-11-18T01:41:32;5.80;99.90
32865;DHT22;19219;44.500;11.188;2023-11-18T01:43:58;5.90;99.90
32865;DHT22;19219;44.500;11.188;2023-11-18T01:46:25;5.90;99.90
32865;DHT22;19219;44.500;11.188;2023-11-18T01:48:52;5.90;99.90
32865;DHT22;19219;44.500;11.188;2023-11-18T01:51:19;5.90;99.90
32865;DHT22;19219;44.500;11.188;2023-11-18T01:53:47;6.00;99.90
32865;DHT22;19219;44.500;11.188;2023-11-18T01:56:14;6.00;99.90
32865;DHT22;19219;44.500;11.188;2023-11-18T01:58:40;6.10;99.90
32865;DHT22;19219;44.500;11.188;2023-11-18T02:01:06;6.20;99.90
32865;DHT22;19219;44.500;11.188;2023-11-18T02:03:35;6.20;99.90
32865;DHT22;19219;44.500;11.188;2023-11-18T02:06:02;6.00;99.90
32865;DHT22;19219;44.500;11.188;2023-11-18T02:08:30;5.90;99.90
32865;DHT22;19219;44.500;11.188;2023-11-18T02:11:05;5.90;99.90
32865;DHT22;19219;44.500;11.188;2023-11-18T02:13:37;5.80;99.90
32865;DHT22;19219;44.500;11.188;2023-11-18T02:16:04;5.80;99.90
32865;DHT22;19219;44.500;11.188;2023-11-18T02:18:32;5.80;99.90
32865;DHT22;19219;44.500;11.188;2023-11-18T02:20:59;5.80;99.90
32865;DHT22;19219;44.500;11.188;2023-11-18T02:23:28;5.80;99.90
32865;DHT22;19219;44.500;11.188;2023-11-18T02:25:55;5.80;99.90
32865;DHT22;19219;44.500;11.188;2023-11-18T02:28:23;5.70;99.90
32865;DHT22;19219;44.500;11.188;2023-11-18T02:30:56;5.60;99.90
32865;DHT22;19219;44.500;11.188;2023-11-18T02:33:30;5.40;99.90
32865;DHT22;19219;44.500;11.188;2023-11-18T02:36:09;5.40;99.90
32865;DHT22;19219;44.500;11.188;2023-11-18T02:38:40;5.40;99.90
32865;DHT22;19219;44.500;11.188;2023-11-18T02:41:12;5.40;99.90
32865;DHT22;19219;44.500;11.188;2023-11-18T02:43:39;5.50;99.90
32865;DHT22;19219;44.500;11.188;2023-11-18T02:46:07;5.60;99.90
32865;DHT22;19219;44.500;11.188;2023-11-18T02:48:34;5.60;99.90
32865;DHT22;19219;44.500;11.188;2023-11-18T02:51:01;5.60;99.90
32865;DHT22;19219;44.500;11.188;2023-11-18T02:53:27;5.50;99.90
32865;DHT22;19219;44.500;11.188;2023-11-18T02:55:53;5.50;99.90
32865;DHT22;19219;44.500;11.188;2023-11-18T02:58:19;5.40;99.90
32865;DHT22;19219;44.500;11.188;2023-11-18T03:00:46;5.40;99.90
32865;DHT22;19219;44.500;11.188;2023-11-18T03:03:11;5.40;99.90
32865;DHT22;19219;44.500;11.188;2023-11-18T03:05:37;5.40;99.90
32865;DHT22;19219;44.500;11.188;2023-11-18T03:08:04;5.40;99.90
32865;DHT22;19219;44.500;11.188;2023-11-18T03:10:34;5.50;99.90
32865;DHT22;19219;44.500;11.188;2023-11-18T03:13:00;5.40;99.90
32865;DHT22;19219;44.500;11.188;2023-11-18T03:15:26;5.30;99.90
32865;DHT22;19219;44.500;11.188;2023-11-18T03:17:53;5.30;99.90
32865;DHT22;19219;44.500;11.188;2023-11-18T03:20:21;5.30;99.90
32865;DHT22;19219;44.500;11.188;2023-11-18T03:22:49;5.30;99.90
32865;DHT22;19219;44.500;11.188;2023-11-18T03:25:17;5.20;99.90
32865;DHT22;19219;44.500;11.188;2023-11-18T03:27:43;5.20;99.90
32865;DHT22;19219;44.500;11.188;2023-11-18T03:30:10;5.10;99.90
32865;DHT22;19219;44.500;11.188;2023-11-18T03:32:36;5.00;99.90
32865;DHT22;19219;44.500;11.188;2023-11-18T03:35:06;5.10;99.90
32865;DHT22;19219;44.500;11.188;2023-11-18T03:37:34;5.10;99.90
32865;DHT22;19219;44.500;11.188;2023-11-18T03:40:00;5.20;99.90
32865;DHT22;19219;44.500;11.188;2023-11-18T03:42:26;5.20;99.90
32865;DHT22;19219;44.500;11.188;2023-11-18T03:44:54;5.20;99.90
32865;DHT22;19219;44.500;11.188;2023-11-18T03:47:20;5.30;99.90
32865;DHT22;19219;44.500;11.188;2023-11-18T03:49:50;5.20;99.90
32865;DHT22;19219;44.500;11.188;2023-11-18T03:52:15;5.30;99.90
32865;DHT22;19219;44.500;11.188;2023-11-18T03:54:41;5.40;99.90
32865;DHT22;19219;44.500;11.188;2023-11-18T03:57:07;5.40;99.90
32865;DHT22;19219;44.500;11.188;2023-11-18T03:59:33;5.40;99.90
32865;DHT22;19219;44.500;11.188;2023-11-18T04:01:59;5.50;99.90
32865;DHT22;19219;44.500;11.188;2023-11-18T04:04:24;5.50;99.90
32865;DHT22;19219;44.500;11.188;2023-11-18T04:06:50;5.50;99.90
32865;DHT22;19219;44.500;11.188;2023-11-18T04:09:16;5.40;99.90
32865;DHT22;19219;44.500;11.188;2023-11-18T04:11:41;5.30;99.90
32865;DHT22;19219;44.500;11.188;2023-11-18T04:14:10;5.10;99.90
32865;DHT22;19219;44.500;11.188;2023-11-18T04:16:36;5.00;99.90
32865;DHT22;19219;44.500;11.188;2023-11-18T04:19:03;4.90;99.90
32865;DHT22;19219;44.500;11.188;2023-11-18T04:21:29;4.90;99.90
32865;DHT22;19219;44.500;11.188;2023-11-18T04:23:55;5.00;99.90
32865;DHT22;19219;44.500;11.188;2023-11-18T04:26:20;5.00;99.90
32865;DHT22;19219;44.500;11.188;2023-11-18T04:28:46;5.10;99.90
32865;DHT22;19219;44.500;11.188;2023-11-18T04:31:12;5.00;99.90
32865;DHT22;19219;44.500;11.188;2023-11-18T04:33:37;5.10;99.90
32865;DHT22;19219;44.500;11.188;2023-11-18T04:36:07;5.10;99.90
32865;DHT22;19219;44.500;11.188;2023-11-18T04:38:35;5.00;99.90
32865;DHT22;19219;44.500;11.188;2023-11-18T04:41:01;5.00;99.90
32865;DHT22;19219;44.500;11.188;2023-11-18T04:43:29;4.90;99.90
32865;DHT22;19219;44.500;11.188;2023-11-18T04:45:56;4.80;99.90
32865;DHT22;19219;44.500;11.188;2023-11-18T04:48:21;4.90;99.90
32865;DHT22;19219;44.500;11.188;2023-11-18T04:50:47;4.90;99.90
32865;DHT22;19219;44.500;11.188;2023-11-18T04:53:13;4.90;99.90
32865;DHT22;19219;44.500;11.188;2023-11-18T04:55:39;4.90;99.90
32865;DHT22;19219;44.500;11.188;2023-11-18T04:58:05;4.90;99.90
32865;DHT22;19219;44.500;11.188;2023-11-18T05:00:32;4.90;99.90
32865;DHT22;19219;44.500;11.188;2023-11-18T05:02:58;4.90;99.90
32865;DHT22;19219;44.500;11.188;2023-11-18T05:05:24;5.00;99.90
32865;DHT22;19219;44.500;11.188;2023-11-18T05:07:49;4.90;99.90
32865;DHT22;19219;44.500;11.188;2023-11-18T05:10:15;5.00;99.90
32865;DHT22;19219;44.500;11.188;2023-11-18T05:12:41;4.90;99.90
32865;DHT22;19219;44.500;11.188;2023-11-18T05:15:09;5.00;99.90
32865;DHT22;19219;44.500;11.188;2023-11-18T05:17:36;5.00;99.90
32865;DHT22;19219;44.500;11.188;2023-11-18T05:20:03;5.00;99.90
32865;DHT22;19219;44.500;11.188;2023-11-18T05:22:29;5.10;99.90
32865;DHT22;19219;44.500;11.188;2023-11-18T05:24:54;5.20;99.90
32865;DHT22;19219;44.500;11.188;2023-11-18T05:27:20;5.10;99.90
32865;DHT22;19219;44.500;11.188;2023-11-18T05:29:46;5.00;99.90
32865;DHT22;19219;44.500;11.188;2023-11-18T05:32:14;4.80;99.90
32865;DHT22;19219;44.500;11.188;2023-11-18T05:34:39;4.60;99.90
32865;DHT22;19219;44.500;11.188;2023-11-18T05:37:05;4.40;99.90
32865;DHT22;19219;44.500;11.188;2023-11-18T05:39:31;4.40;99.90
32865;DHT22;19219;44.500;11.188;2023-11-18T05:42:00;4.30;99.90
32865;DHT22;19219;44.500;11.188;2023-11-18T05:44:26;4.30;99.90
32865;DHT22;19219;44.500;11.188;2023-11-18T05:46:58;4.30;99.90
32865;DHT22;19219;44.500;11.188;2023-11-18T05:49:24;4.30;99.90
32865;DHT22;19219;44.500;11.188;2023-11-18T05:51:50;4.40;99.90
32865;DHT22;19219;44.500;11.188;2023-11-18T05:54:17;4.30;99.90
32865;DHT22;19219;44.500;11.188;2023-11-18T05:56:43;4.30;99.90
32865;DHT22;19219;44.500;11.188;2023-11-18T05:59:09;4.40;99.90
32865;DHT22;19219;44.500;11.188;2023-11-18T06:01:36;4.50;99.90
32865;DHT22;19219;44.500;11.188;2023-11-18T06:04:03;4.60;99.90
32865;DHT22;19219;44.500;11.188;2023-11-18T06:06:28;4.60;99.90
32865;DHT22;19219;44.500;11.188;2023-11-18T06:08:54;4.60;99.90
32865;DHT22;19219;44.500;11.188;2023-11-18T06:11:20;4.50;99.90
32865;DHT22;19219;44.500;11.188;2023-11-18T06:13:51;4.50;99.90
32865;DHT22;19219;44.500;11.188;2023-11-18T06:16:21;4.50;99.90
32865;DHT22;19219;44.500;11.188;2023-11-18T06:18:49;4.60;99.90
32865;DHT22;19219;44.500;11.188;2023-11-18T06:21:22;4.60;99.90
32865;DHT22;19219;44.500;11.188;2023-11-18T06:23:56;4.60;99.90
32865;DHT22;19219;44.500;11.188;2023-11-18T06:26:22;4.50;99.90
32865;DHT22;19219;44.500;11.188;2023-11-18T06:28:48;4.60;99.90
32865;DHT22;19219;44.500;11.188;2023-11-18T06:31:17;4.50;99.90
32865;DHT22;19219;44.500;11.188;2023-11-18T06:33:43;4.60;99.90
32865;DHT22;19219;44.500;11.188;2023-11-18T06:38:45;4.70;99.90
32865;DHT22;19219;44.500;11.188;2023-11-18T06:41:12;4.80;99.90
32865;DHT22;19219;44.500;11.188;2023-11-18T06:43:39;4.80;99.90
32865;DHT22;19219;44.500;11.188;2023-11-18T06:46:24;4.90;99.90
32865;DHT22;19219;44.500;11.188;2023-11-18T06:48:51;5.00;99.90
32865;DHT22;19219;44.500;11.188;2023-11-18T06:51:21;4.90;99.90
32865;DHT22;19219;44.500;11.188;2023-11-18T06:53:53;4.90;99.90
32865;DHT22;19219;44.500;11.188;2023-11-18T06:56:21;4.90;99.90
32865;DHT22;19219;44.500;11.188;2023-11-18T06:58:47;4.90;99.90
32865;DHT22;19219;44.500;11.188;2023-11-18T07:01:13;4.90;99.90
32865;DHT22;19219;44.500;11.188;2023-11-18T07:03:44;5.00;99.90
32865;DHT22;19219;44.500;11.188;2023-11-18T07:06:10;5.10;99.90
32865;DHT22;19219;44.500;11.188;2023-11-18T07:08:37;5.20;99.90
32865;DHT22;19219;44.500;11.188;2023-11-18T07:11:03;5.20;99.90
32865;DHT22;19219;44.500;11.188;2023-11-18T07:13:29;5.30;99.90
32865;DHT22;19219;44.500;11.188;2023-11-18T07:15:55;5.30;99.90
32865;DHT22;19219;44.500;11.188;2023-11-18T07:18:25;5.40;99.90
32865;DHT22;19219;44.500;11.188;2023-11-18T07:20:51;5.50;99.90
32865;DHT22;19219;44.500;11.188;2023-11-18T07:23:20;5.60;99.90
32865;DHT22;19219;44.500;11.188;2023-11-18T07:25:46;5.60;99.90
32865;DHT22;19219;44.500;11.188;2023-11-18T07:28:13;5.60;99.90
32865;DHT22;19219;44.500;11.188;2023-11-18T07:30:43;5.70;99.90
32865;DHT22;19219;44.500;11.188;2023-11-18T07:33:13;5.80;99.90
32865;DHT22;19219;44.500;11.188;2023-11-18T07:35:40;5.90;99.90
32865;DHT22;19219;44.500;11.188;2023-11-18T07:38:05;6.10;99.90
32865;DHT22;19219;44.500;11.188;2023-11-18T07:40:33;6.20;99.90
32865;DHT22;19219;44.500;11.188;2023-11-18T07:42:59;6.30;99.90
32865;DHT22;19219;44.500;11.188;2023-11-18T07:45:27;6.50;99.90
32865;DHT22;19219;44.500;11.188;2023-11-18T07:47:54;6.70;99.90
32865;DHT22;19219;44.500;11.188;2023-11-18T07:50:21;6.90;99.90
32865;DHT22;19219;44.500;11.188;2023-11-18T07:52:50;7.20;99.90
32865;DHT22;19219;44.500;11.188;2023-11-18T07:55:16;7.60;99.90
32865;DHT22;19219;44.500;11.188;2023-11-18T07:57:42;8.70;99.90
32865;DHT22;19219;44.500;11.188;2023-11-18T08:00:08;10.90;99.90
32865;DHT22;19219;44.500;11.188;2023-11-18T08:02:38;13.40;99.90
32865;DHT22;19219;44.500;11.188;2023-11-18T08:05:04;15.80;99.90
32865;DHT22;19219;44.500;11.188;2023-11-18T08:07:34;17.20;96.30
32865;DHT22;19219;44.500;11.188;2023-11-18T08:10:04;18.00;93.20
32865;DHT22;19219;44.500;11.188;2023-11-18T08:12:32;19.10;89.70
32865;DHT22;19219;44.500;11.188;2023-11-18T08:15:00;19.90;84.40
32865;DHT22;19219;44.500;11.188;2023-11-18T08:17:26;20.40;80.20
32865;DHT22;19219;44.500;11.188;2023-11-18T08:19:52;20.70;79.50
32865;DHT22;19219;44.500;11.188;2023-11-18T08:22:18;21.30;77.00
32865;DHT22;19219;44.500;11.188;2023-11-18T08:24:46;22.40;73.40
32865;DHT22;19219;44.500;11.188;2023-11-18T08:27:11;23.30;63.40
32865;DHT22;19219;44.500;11.188;2023-11-18T08:29:37;23.60;63.60
32865;DHT22;19219;44.500;11.188;2023-11-18T08:32:05;24.00;58.70
32865;DHT22;19219;44.500;11.188;2023-11-18T08:34:31;24.80;51.10
32865;DHT22;19219;44.500;11.188;2023-11-18T08:36:59;25.00;48.60
32865;DHT22;19219;44.500;11.188;2023-11-18T08:39:25;25.80;43.70
32865;DHT22;19219;44.500;11.188;2023-11-18T08:41:51;26.10;40.90
32865;DHT22;19219;44.500;11.188;2023-11-18T08:44:17;26.30;38.60
32865;DHT22;19219;44.500;11.188;2023-11-18T08:46:43;26.30;37.90
32865;DHT22;19219;44.500;11.188;2023-11-18T08:49:09;26.50;36.10
32865;DHT22;19219;44.500;11.188;2023-11-18T08:51:38;25.10;37.10
32865;DHT22;19219;44.500;11.188;2023-11-18T08:54:07;25.10;35.90
32865;DHT22;19219;44.500;11.188;2023-11-18T08:56:54;26.10;36.20
32865;DHT22;19219;44.500;11.188;2023-11-18T08:59:20;26.40;35.50
32865;DHT22;19219;44.500;11.188;2023-11-18T09:01:53;26.30;34.20
32865;DHT22;19219;44.500;11.188;2023-11-18T09:04:28;26.90;33.40
32865;DHT22;19219;44.500;11.188;2023-11-18T09:06:53;25.50;32.90
32865;DHT22;19219;44.500;11.188;2023-11-18T09:09:23;25.60;32.40
32865;DHT22;19219;44.500;11.188;2023-11-18T09:11:54;26.00;32.50
32865;DHT22;19219;44.500;11.188;2023-11-18T09:14:25;26.90;32.00
32865;DHT22;19219;44.500;11.188;2023-11-18T09:16:52;27.00;33.10
32865;DHT22;19219;44.500;11.188;2023-11-18T09:19:20;26.60;31.30
32865;DHT22;19219;44.500;11.188;2023-11-18T09:21:47;25.90;31.40
32865;DHT22;19219;44.500;11.188;2023-11-18T09:24:14;26.90;30.90
32865;DHT22;19219;44.500;11.188;2023-11-18T09:26:43;27.50;30.60
32865;DHT22;19219;44.500;11.188;2023-11-18T09:29:16;27.40;30.40
32865;DHT22;19219;44.500;11.188;2023-11-18T09:31:47;26.90;30.10
32865;DHT22;19219;44.500;11.188;2023-11-18T09:34:18;26.90;30.40
32865;DHT22;19219;44.500;11.188;2023-11-18T09:36:52;27.60;30.00
32865;DHT22;19219;44.500;11.188;2023-11-18T09:39:19;27.40;29.90
32865;DHT22;19219;44.500;11.188;2023-11-18T09:42:06;27.80;29.60
32865;DHT22;19219;44.500;11.188;2023-11-18T09:44:35;28.00;29.50
32865;DHT22;19219;44.500;11.188;2023-11-18T09:47:04;28.00;29.70
32865;DHT22;19219;44.500;11.188;2023-11-18T09:49:44;28.10;30.00
32865;DHT22;19219;44.500;11.188;2023-11-18T09:52:15;27.80;29.80
32865;DHT22;19219;44.500;11.188;2023-11-18T10:00:02;27.10;29.70
32865;DHT22;19219;44.500;11.188;2023-11-18T10:02:52;26.90;29.50
32865;DHT22;19219;44.500;11.188;2023-11-18T10:05:21;26.40;30.10
32865;DHT22;19219;44.500;11.188;2023-11-18T10:07:48;27.20;29.80
32865;DHT22;19219;44.500;11.188;2023-11-18T10:10:14;27.70;29.70
32865;DHT22;19219;44.500;11.188;2023-11-18T10:12:44;27.30;29.90
32865;DHT22;19219;44.500;11.188;2023-11-18T10:15:13;27.60;29.90
32865;DHT22;19219;44.500;11.188;2023-11-18T10:17:43;27.00;30.00
32865;DHT22;19219;44.500;11.188;2023-11-18T10:23:20;28.30;30.30
32865;DHT22;19219;44.500;11.188;2023-11-18T10:25:54;27.90;29.70
32865;DHT22;19219;44.500;11.188;2023-11-18T10:28:28;26.90;29.80
32865;DHT22;19219;44.500;11.188;2023-11-18T10:31:01;26.60;30.50
32865;DHT22;19219;44.500;11.188;2023-11-18T10:33:31;26.80;30.50
32865;DHT22;19219;44.500;11.188;2023-11-18T10:35:59;26.50;30.20
32865;DHT22;19219;44.500;11.188;2023-11-18T10:38:29;26.00;30.50
32865;DHT22;19219;44.500;11.188;2023-11-18T10:40:59;25.50;31.70
32865;DHT22;19219;44.500;11.188;2023-11-18T10:43:28;25.60;31.20
32865;DHT22;19219;44.500;11.188;2023-11-18T10:46:05;25.50;31.40
32865;DHT22;19219;44.500;11.188;2023-11-18T10:51:12;23.90;31.80
32865;DHT22;19219;44.500;11.188;2023-11-18T10:53:43;23.20;32.90
32865;DHT22;19219;44.500;11.188;2023-11-18T10:56:28;22.20;33.10
32865;DHT22;19219;44.500;11.188;2023-11-18T10:59:06;21.10;32.50
32865;DHT22;19219;44.500;11.188;2023-11-18T11:01:34;20.40;33.90
32865;DHT22;19219;44.500;11.188;2023-11-18T11:04:04;19.80;34.00
32865;DHT22;19219;44.500;11.188;2023-11-18T11:06:32;19.50;34.40
32865;DHT22;19219;44.500;11.188;2023-11-18T11:08:58;19.10;34.10
32865;DHT22;19219;44.500;11.188;2023-11-18T11:11:25;18.70;34.50
32865;DHT22;19219;44.500;11.188;2023-11-18T11:13:56;18.60;34.40
32865;DHT22;19219;44.500;11.188;2023-11-18T11:16:28;18.50;34.80
32865;DHT22;19219;44.500;11.188;2023-11-18T11:18:55;18.50;34.30
32865;DHT22;19219;44.500;11.188;2023-11-18T11:21:25;18.50;34.00
32865;DHT22;19219;44.500;11.188;2023-11-18T11:23:57;18.40;34.40
32865;DHT22;19219;44.500;11.188;2023-11-18T11:26:39;18.40;35.40
32865;DHT22;19219;44.500;11.188;2023-11-18T11:29:18;18.50;35.10
32865;DHT22;19219;44.500;11.188;2023-11-18T11:31:51;18.50;34.90
32865;DHT22;19219;44.500;11.188;2023-11-18T11:34:24;18.60;35.20
32865;DHT22;19219;44.500;11.188;2023-11-18T11:36:53;18.50;35.90
32865;DHT22;19219;44.500;11.188;2023-11-18T11:39:20;18.40;36.30
32865;DHT22;19219;44.500;11.188;2023-11-18T11:41:53;18.40;36.00
32865;DHT22;19219;44.500;11.188;2023-11-18T11:44:24;18.40;36.50
32865;DHT22;19219;44.500;11.188;2023-11-18T11:46:58;18.50;37.00
32865;DHT22;19219;44.500;11.188;2023-11-18T11:49:27;18.30;36.40
32865;DHT22;19219;44.500;11.188;2023-11-18T11:52:03;18.20;36.90
32865;DHT22;19219;44.500;11.188;2023-11-18T11:55:13;18.20;37.10
32865;DHT22;19219;44.500;11.188;2023-11-18T11:57:41;18.00;36.70
32865;DHT22;19219;44.500;11.188;2023-11-18T12:00:10;18.00;37.30
32865;DHT22;19219;44.500;11.188;2023-11-18T12:02:50;17.90;36.40
32865;DHT22;19219;44.500;11.188;2023-11-18T12:05:29;17.80;36.40
32865;DHT22;19219;44.500;11.188;2023-11-18T12:07:59;17.70;37.10
32865;DHT22;19219;44.500;11.188;2023-11-18T12:10:30;17.70;36.90
32865;DHT22;19219;44.500;11.188;2023-11-18T12:13:12;17.80;36.80
32865;DHT22;19219;44.500;11.188;2023-11-18T12:15:52;17.70;36.80
32865;DHT22;19219;44.500;11.188;2023-11-18T12:18:29;17.60;38.60
32865;DHT22;19219;44.500;11.188;2023-11-18T12:20:57;17.40;37.10
32865;DHT22;19219;44.500;11.188;2023-11-18T12:23:27;17.40;38.40
32865;DHT22;19219;44.500;11.188;2023-11-18T12:25:54;17.20;37.20
32865;DHT22;19219;44.500;11.188;2023-11-18T12:28:30;17.10;36.70
32865;DHT22;19219;44.500;11.188;2023-11-18T12:31:01;17.00;36.60
32865;DHT22;19219;44.500;11.188;2023-11-18T12:39:58;17.00;38.80
32865;DHT22;19219;44.500;11.188;2023-11-18T12:43:03;16.90;37.00
32865;DHT22;19219;44.500;11.188;2023-11-18T12:46:51;16.90;36.80
32865;DHT22;19219;44.500;11.188;2023-11-18T12:48:47;16.90;37.80
32865;DHT22;19219;44.500;11.188;2023-11-18T12:51:15;16.90;37.70
32865;DHT22;19219;44.500;11.188;2023-11-18T12:53:48;16.80;36.60
32865;DHT22;19219;44.500;11.188;2023-11-18T12:56:19;16.80;37.20
32865;DHT22;19219;44.500;11.188;2023-11-18T12:58:48;16.80;37.80
32865;DHT22;19219;44.500;11.188;2023-11-18T13:01:14;16.90;38.20
32865;DHT22;19219;44.500;11.188;2023-11-18T13:03:41;16.90;38.00
32865;DHT22;19219;44.500;11.188;2023-11-18T13:06:11;16.90;38.00
32865;DHT22;19219;44.500;11.188;2023-11-18T13:08:40;17.10;39.00
32865;DHT22;19219;44.500;11.188;2023-11-18T13:11:06;17.20;38.60
32865;DHT22;19219;44.500;11.188;2023-11-18T13:13:40;17.10;39.70
32865;DHT22;19219;44.500;11.188;2023-11-18T13:16:06;17.10;39.90
32865;DHT22;19219;44.500;11.188;2023-11-18T13:18:42;17.20;39.10
32865;DHT22;19219;44.500;11.188;2023-11-18T13:21:13;17.20;38.70
32865;DHT22;19219;44.500;11.188;2023-11-18T13:23:39;17.20;38.80
32865;DHT22;19219;44.500;11.188;2023-11-18T13:26:05;17.20;39.00
32865;DHT22;19219;44.500;11.188;2023-11-18T13:28:32;17.30;39.10
32865;DHT22;19219;44.500;11.188;2023-11-18T13:30:58;17.10;39.20
32865;DHT22;19219;44.500;11.188;2023-11-18T13:33:23;17.20;39.00
32865;DHT22;19219;44.500;11.188;2023-11-18T13:35:49;17.30;39.10
32865;DHT22;19219;44.500;11.188;2023-11-18T13:38:15;17.30;40.00
32865;DHT22;19219;44.500;11.188;2023-11-18T13:40:47;17.30;39.70
32865;DHT22;19219;44.500;11.188;2023-11-18T13:43:13;17.30;39.60
32865;DHT22;19219;44.500;11.188;2023-11-18T13:45:40;17.30;39.20
32865;DHT22;19219;44.500;11.188;2023-11-18T13:48:07;17.30;40.20
32865;DHT22;19219;44.500;11.188;2023-11-18T13:50:37;17.10;40.10
32865;DHT22;19219;44.500;11.188;2023-11-18T13:53:04;17.00;40.10
32865;DHT22;19219;44.500;11.188;2023-11-18T13:55:31;17.00;39.90
32865;DHT22;19219;44.500;11.188;2023-11-18T13:57:58;17.00;41.00
32865;DHT22;19219;44.500;11.188;2023-11-18T14:00:28;16.90;40.70
32865;DHT22;19219;44.500;11.188;2023-11-18T14:02:57;17.10;40.90
32865;DHT22;19219;44.500;11.188;2023-11-18T14:05:23;17.10;40.60
32865;DHT22;19219;44.500;11.188;2023-11-18T14:07:57;17.20;40.80
32865;DHT22;19219;44.500;11.188;2023-11-18T14:10:27;17.20;40.80
32865;DHT22;19219;44.500;11.188;2023-11-18T14:13:05;17.20;40.90
32865;DHT22;19219;44.500;11.188;2023-11-18T14:15:34;17.10;41.30
32865;DHT22;19219;44.500;11.188;2023-11-18T14:18:04;17.20;40.90
32865;DHT22;19219;44.500;11.188;2023-11-18T14:20:29;17.00;40.00
32865;DHT22;19219;44.500;11.188;2023-11-18T14:22:57;17.10;40.20
32865;DHT22;19219;44.500;11.188;2023-11-18T14:25:24;17.10;40.30
32865;DHT22;19219;44.500;11.188;2023-11-18T14:27:52;17.00;40.60
32865;DHT22;19219;44.500;11.188;2023-11-18T14:30:18;17.00;41.40
32865;DHT22;19219;44.500;11.188;2023-11-18T14:32:45;17.10;41.20
32865;DHT22;19219;44.500;11.188;2023-11-18T14:35:12;17.10;41.30
32865;DHT22;19219;44.500;11.188;2023-11-18T14:37:43;17.00;41.50
32865;DHT22;19219;44.500;11.188;2023-11-18T14:40:12;17.00;41.30
32865;DHT22;19219;44.500;11.188;2023-11-18T14:42:50;17.00;41.50
32865;DHT22;19219;44.500;11.188;2023-11-18T14:45:16;17.00;41.90
32865;DHT22;19219;44.500;11.188;2023-11-18T14:47:44;16.90;41.40
32865;DHT22;19219;44.500;11.188;2023-11-18T14:50:11;16.90;40.80
32865;DHT22;19219;44.500;11.188;2023-11-18T14:52:48;16.80;40.80
32865;DHT22;19219;44.500;11.188;2023-11-18T14:55:16;16.80;41.40
32865;DHT22;19219;44.500;11.188;2023-11-18T14:57:46;16.70;41.80
32865;DHT22;19219;44.500;11.188;2023-11-18T15:00:12;16.70;42.60
32865;DHT22;19219;44.500;11.188;2023-11-18T15:02:50;16.60;43.00
32865;DHT22;19219;44.500;11.188;2023-11-18T15:05:17;16.50;44.20
32865;DHT22;19219;44.500;11.188;2023-11-18T15:07:50;16.30;46.00
32865;DHT22;19219;44.500;11.188;2023-11-18T15:10:17;16.10;51.10
32865;DHT22;19219;44.500;11.188;2023-11-18T15:12:54;15.70;54.90
32865;DHT22;19219;44.500;11.188;2023-11-18T15:15:20;15.20;57.00
32865;DHT22;19219;44.500;11.188;2023-11-18T15:17:47;14.80;58.70
32865;DHT22;19219;44.500;11.188;2023-11-18T15:20:19;14.50;60.40
32865;DHT22;19219;44.500;11.188;2023-11-18T15:22:45;14.10;61.80
32865;DHT22;19219;44.500;11.188;2023-11-18T15:25:12;13.70;64.10
32865;DHT22;19219;44.500;11.188;2023-11-18T15:27:44;13.50;67.30
32865;DHT22;19219;44.500;11.188;2023-11-18T15:30:14;13.20;69.70
32865;DHT22;19219;44.500;11.188;2023-11-18T15:32:41;12.90;70.20
32865;DHT22;19219;44.500;11.188;2023-11-18T15:35:08;12.80;72.00
32865;DHT22;19219;44.500;11.188;2023-11-18T15:37:37;12.50;73.80
32865;DHT22;19219;44.500;11.188;2023-11-18T15:40:08;12.30;75.90
32865;DHT22;19219;44.500;11.188;2023-11-18T15:42:42;12.20;78.60
32865;DHT22;19219;44.500;11.188;2023-11-18T15:45:11;12.10;80.60
32865;DHT22;19219;44.500;11.188;2023-11-18T15:47:38;11.80;83.00
32865;DHT22;19219;44.500;11.188;2023-11-18T15:50:05;11.70;86.60
32865;DHT22;19219;44.500;11.188;2023-11-18T15:52:34;11.50;88.40